Terminal Aerodrome Forecast
Issued by NWS

Home | Current Version | Previous Version | Text Only | Print | Product List | Glossary On
Versions: 1 2 3 4 5 6 7 8 9 10 11 12 13 14 15 16
141
FTUS42 KGSP 271740
TAFGMU
TAF
KGMU 271740Z 2718/2818 22004KT P6SM SCT050
      TEMPO 2719/2723 VRB10G15KT 4SM -TSRA BKN060CB BKN120 BKN200
     FM280300 28003KT P6SM SCT250
     FM281400 24008KT P6SM FEW250
     FM281700 23012G21KT P6SM FEW250=

USA.gov is the U.S. government's official web portal to all federal, state and local government web resources and services.